createdAt,value
2023-12-23T00:00:54.668Z,100.00
2023-12-23T00:01:58.739Z,100.00
2023-12-23T00:03:02.090Z,100.00
2023-12-23T00:04:04.776Z,100.00
2023-12-23T00:05:07.190Z,100.00
2023-12-23T00:06:10.790Z,100.00
2023-12-23T00:07:15.538Z,100.00
2023-12-23T00:08:17.695Z,100.00
2023-12-23T00:09:19.907Z,100.00
2023-12-23T00:10:22.078Z,100.00
2023-12-23T00:11:24.367Z,100.00
2023-12-23T00:12:26.695Z,100.00
2023-12-23T00:13:28.904Z,100.00
2023-12-23T00:14:31.059Z,100.00
2023-12-23T00:15:33.200Z,100.00
2023-12-23T00:16:35.419Z,100.00
2023-12-23T00:17:37.820Z,100.00
2023-12-23T00:18:40.224Z,100.00
2023-12-23T00:19:42.696Z,100.00
2023-12-23T00:20:45.025Z,100.00
2023-12-23T00:21:47.262Z,100.00
2023-12-23T00:22:49.432Z,100.00
2023-12-23T00:23:51.588Z,100.00
2023-12-23T00:24:53.732Z,100.00
2023-12-23T00:25:56.106Z,100.00
2023-12-23T00:26:58.915Z,100.00
2023-12-23T00:28:01.299Z,100.00
2023-12-23T00:29:03.439Z,100.00
2023-12-23T00:30:07.206Z,100.00
2023-12-23T00:31:09.353Z,100.00
2023-12-23T00:32:11.688Z,100.00
2023-12-23T00:33:14.032Z,100.00
2023-12-23T00:34:16.225Z,100.00
2023-12-23T00:35:18.895Z,100.00
2023-12-23T00:36:21.115Z,100.00
2023-12-23T00:37:23.251Z,100.00
2023-12-23T00:38:25.519Z,100.00
2023-12-23T00:39:28.082Z,100.00
2023-12-23T00:40:30.177Z,100.00
2023-12-23T00:41:32.343Z,100.00
2023-12-23T00:42:34.734Z,100.00
2023-12-23T00:43:36.936Z,100.00
2023-12-23T00:44:39.208Z,100.00
2023-12-23T00:45:41.327Z,100.00
2023-12-23T00:46:43.625Z,100.00
2023-12-23T00:47:45.914Z,100.00
2023-12-23T00:48:48.251Z,100.00
2023-12-23T00:49:50.460Z,100.00
2023-12-23T00:50:52.587Z,100.00
2023-12-23T00:51:54.862Z,100.00
2023-12-23T00:52:57.623Z,100.00
2023-12-23T00:53:59.893Z,100.00
2023-12-23T00:55:03.835Z,100.00
2023-12-23T00:56:06.556Z,100.00
2023-12-23T00:57:08.812Z,100.00
2023-12-23T00:58:10.975Z,100.00
2023-12-23T00:59:13.256Z,100.00
2023-12-23T01:00:15.741Z,100.00
2023-12-23T01:01:18.279Z,100.00
2023-12-23T01:02:20.494Z,100.00
2023-12-23T01:03:22.648Z,100.00
2023-12-23T01:04:24.775Z,100.00
2023-12-23T01:05:26.940Z,100.00
2023-12-23T01:06:29.115Z,100.00
2023-12-23T01:07:31.268Z,100.00
2023-12-23T01:08:33.426Z,100.00
2023-12-23T01:09:35.593Z,100.00
2023-12-23T01:10:37.808Z,100.00
2023-12-23T01:11:40.035Z,100.00
2023-12-23T01:12:42.199Z,100.00
2023-12-23T01:13:44.380Z,100.00
2023-12-23T01:14:46.598Z,100.00
2023-12-23T01:15:49.145Z,100.00
2023-12-23T01:16:51.291Z,100.00
2023-12-23T01:17:53.759Z,100.00
2023-12-23T01:18:56.192Z,100.00
2023-12-23T01:19:58.442Z,100.00
2023-12-23T01:21:00.617Z,100.00
2023-12-23T01:22:02.838Z,100.00
2023-12-23T01:23:05.528Z,100.00
2023-12-23T01:24:08.175Z,100.00
2023-12-23T01:25:10.318Z,100.00
2023-12-23T01:26:12.666Z,100.00
2023-12-23T01:27:15.608Z,100.00
2023-12-23T01:28:17.806Z,100.00
2023-12-23T01:29:20.022Z,100.00
2023-12-23T01:30:24.243Z,100.00
2023-12-23T01:31:26.802Z,100.00
2023-12-23T01:32:29.050Z,100.00
2023-12-23T01:33:31.359Z,100.00
2023-12-23T01:34:33.633Z,100.00
2023-12-23T01:35:35.861Z,100.00
2023-12-23T01:36:38.050Z,100.00
2023-12-23T01:37:40.271Z,100.00
2023-12-23T01:38:42.503Z,100.00
2023-12-23T01:39:44.641Z,100.00
2023-12-23T01:40:47.326Z,100.00
2023-12-23T01:41:49.481Z,100.00
2023-12-23T01:42:51.609Z,100.00
2023-12-23T01:43:53.778Z,100.00
2023-12-23T01:44:55.989Z,100.00
2023-12-23T01:46:00.489Z,100.00
2023-12-23T01:47:03.527Z,100.00
2023-12-23T01:48:07.186Z,100.00
2023-12-23T01:49:09.709Z,100.00
2023-12-23T01:50:12.275Z,100.00
2023-12-23T01:51:15.531Z,100.00
2023-12-23T01:52:17.672Z,100.00
2023-12-23T01:53:20.197Z,100.00
2023-12-23T01:54:23.181Z,100.00
2023-12-23T01:55:28.360Z,100.00
2023-12-23T01:56:30.649Z,100.00
2023-12-23T01:57:33.861Z,100.00
2023-12-23T01:58:36.125Z,100.00
2023-12-23T01:59:38.337Z,100.00
2023-12-23T02:00:40.689Z,100.00
2023-12-23T02:01:44.340Z,100.00
2023-12-23T02:02:48.950Z,100.00
2023-12-23T02:03:51.573Z,100.00
2023-12-23T02:04:53.898Z,100.00
2023-12-23T02:05:56.335Z,100.00
2023-12-23T02:06:58.504Z,100.00
2023-12-23T02:08:01.140Z,100.00
2023-12-23T02:09:03.613Z,100.00
2023-12-23T02:10:06.986Z,100.00
2023-12-23T02:11:10.769Z,100.00
2023-12-23T02:12:17.003Z,100.00
2023-12-23T02:13:25.716Z,100.00
2023-12-23T02:14:34.364Z,100.00
2023-12-23T02:15:37.941Z,100.00
2023-12-23T02:16:40.345Z,100.00
2023-12-23T02:17:42.829Z,100.00
2023-12-23T02:18:46.612Z,100.00
2023-12-23T02:19:48.929Z,100.00
2023-12-23T02:20:51.764Z,100.00
2023-12-23T02:21:53.905Z,100.00
2023-12-23T02:22:56.281Z,100.00
2023-12-23T02:23:58.440Z,100.00
2023-12-23T02:25:00.673Z,100.00
2023-12-23T02:26:03.144Z,100.00
2023-12-23T02:27:09.873Z,100.00
2023-12-23T02:28:13.460Z,100.00
2023-12-23T02:29:18.558Z,100.00
2023-12-23T02:30:21.618Z,100.00
2023-12-23T02:31:23.941Z,100.00
2023-12-23T02:32:27.192Z,100.00
2023-12-23T02:33:29.600Z,100.00
2023-12-23T02:34:31.954Z,100.00
2023-12-23T02:35:34.312Z,100.00
2023-12-23T02:36:36.424Z,100.00
2023-12-23T02:37:38.637Z,100.00
2023-12-23T02:38:40.768Z,100.00
2023-12-23T02:39:42.931Z,100.00
2023-12-23T02:40:45.097Z,100.00
2023-12-23T02:41:47.250Z,100.00
2023-12-23T02:42:49.573Z,100.00
2023-12-23T02:43:51.912Z,100.00
2023-12-23T02:44:56.419Z,100.00
2023-12-23T02:45:59.213Z,100.00
2023-12-23T02:47:01.393Z,100.00
2023-12-23T02:48:04.504Z,100.00
2023-12-23T02:49:06.788Z,100.00
2023-12-23T02:50:09.195Z,100.00
2023-12-23T02:51:11.511Z,100.00
2023-12-23T02:52:13.665Z,100.00
2023-12-23T02:53:15.981Z,100.00
2023-12-23T02:54:18.177Z,100.00
2023-12-23T02:55:20.318Z,100.00
2023-12-23T02:56:22.468Z,100.00
2023-12-23T02:57:24.681Z,100.00
2023-12-23T02:58:26.902Z,100.00
2023-12-23T02:59:29.075Z,100.00
2023-12-23T03:00:31.262Z,100.00
2023-12-23T03:01:33.502Z,100.00
2023-12-23T03:02:35.639Z,100.00
2023-12-23T03:03:37.903Z,100.00
2023-12-23T03:04:41.074Z,100.00
2023-12-23T03:05:43.320Z,100.00
2023-12-23T03:06:45.467Z,100.00
2023-12-23T03:07:49.174Z,100.00
2023-12-23T03:08:51.345Z,100.00
2023-12-23T03:09:53.451Z,100.00
2023-12-23T03:10:55.613Z,100.00
2023-12-23T03:11:57.743Z,100.00
2023-12-23T03:12:59.906Z,100.00
2023-12-23T03:14:02.100Z,100.00
2023-12-23T03:15:04.700Z,100.00
2023-12-23T03:16:18.706Z,100.00
2023-12-23T03:17:21.197Z,100.00
2023-12-23T03:18:23.523Z,100.00
2023-12-23T03:19:25.692Z,100.00
2023-12-23T03:20:27.990Z,100.00
2023-12-23T03:21:30.684Z,100.00
2023-12-23T03:22:33.440Z,100.00
2023-12-23T03:23:35.682Z,100.00
2023-12-23T03:24:37.800Z,100.00
2023-12-23T03:25:39.943Z,100.00
2023-12-23T03:26:42.068Z,100.00
2023-12-23T03:27:44.228Z,100.00
2023-12-23T03:28:46.591Z,100.00
2023-12-23T03:29:48.747Z,100.00
2023-12-23T03:30:50.985Z,100.00
2023-12-23T03:31:53.195Z,100.00
2023-12-23T03:32:55.397Z,100.00
2023-12-23T03:33:57.634Z,100.00
2023-12-23T03:34:59.819Z,100.00
2023-12-23T03:36:01.980Z,100.00
2023-12-23T03:37:04.617Z,100.00
2023-12-23T03:38:06.858Z,100.00
2023-12-23T03:39:09.441Z,100.00
2023-12-23T03:40:12.041Z,100.00
2023-12-23T03:41:14.276Z,100.00
2023-12-23T03:42:16.380Z,100.00
2023-12-23T03:43:18.511Z,100.00
2023-12-23T03:44:20.802Z,100.00
2023-12-23T03:45:23.127Z,100.00
2023-12-23T03:46:25.376Z,100.00
2023-12-23T03:47:27.688Z,100.00
2023-12-23T03:48:29.852Z,100.00
2023-12-23T03:49:32.014Z,100.00
2023-12-23T03:50:34.183Z,100.00
2023-12-23T03:51:36.290Z,100.00
2023-12-23T03:52:38.516Z,100.00
2023-12-23T03:53:40.715Z,100.00
2023-12-23T03:54:42.857Z,100.00
2023-12-23T03:55:45.012Z,100.00
2023-12-23T03:56:49.134Z,100.00
2023-12-23T03:57:52.119Z,100.00
2023-12-23T03:58:54.350Z,100.00
2023-12-23T03:59:56.506Z,100.00
2023-12-23T04:00:58.685Z,100.00
2023-12-23T04:02:00.911Z,100.00
2023-12-23T04:03:03.209Z,100.00
2023-12-23T04:04:06.346Z,100.00
2023-12-23T04:05:08.553Z,100.00
2023-12-23T04:06:13.919Z,100.00
2023-12-23T04:07:16.108Z,100.00
2023-12-23T04:08:18.759Z,100.00
2023-12-23T04:09:20.984Z,100.00
2023-12-23T04:10:23.303Z,100.00
2023-12-23T04:11:25.514Z,100.00
2023-12-23T04:12:27.673Z,100.00
2023-12-23T04:13:30.418Z,100.00
2023-12-23T04:14:33.927Z,100.00
2023-12-23T04:15:36.103Z,100.00
2023-12-23T04:16:41.250Z,100.00
2023-12-23T04:17:44.149Z,100.00
2023-12-23T04:18:46.369Z,100.00
2023-12-23T04:19:50.631Z,100.00
2023-12-23T04:20:52.788Z,100.00
2023-12-23T04:21:54.982Z,100.00
2023-12-23T04:22:57.161Z,100.00
2023-12-23T04:23:59.968Z,100.00
2023-12-23T04:25:02.147Z,100.00
2023-12-23T04:26:04.415Z,100.00
2023-12-23T04:27:06.565Z,100.00
2023-12-23T04:28:09.193Z,100.00
2023-12-23T04:29:12.608Z,100.00
2023-12-23T04:30:14.829Z,100.00
2023-12-23T04:31:17.164Z,100.00
2023-12-23T04:32:19.509Z,100.00
2023-12-23T04:33:22.436Z,100.00
2023-12-23T04:34:24.584Z,100.00
2023-12-23T04:35:27.053Z,100.00
2023-12-23T04:36:29.267Z,100.00
2023-12-23T04:37:31.437Z,100.00
2023-12-23T04:38:33.729Z,100.00
2023-12-23T04:39:35.851Z,100.00
2023-12-23T04:40:37.974Z,100.00
2023-12-23T04:41:47.884Z,100.00
2023-12-23T04:42:50.240Z,99.39
2023-12-23T04:43:52.535Z,98.90
2023-12-23T04:44:54.668Z,99.46
2023-12-23T04:45:57.100Z,98.95
2023-12-23T04:46:59.305Z,99.28
2023-12-23T04:48:01.533Z,99.29
2023-12-23T04:49:03.744Z,98.68
2023-12-23T04:50:06.737Z,99.02
2023-12-23T04:51:08.902Z,98.89
2023-12-23T04:52:11.003Z,99.68
2023-12-23T04:53:13.141Z,100.00
2023-12-23T04:54:15.288Z,100.00
2023-12-23T04:55:17.402Z,100.00
2023-12-23T04:56:19.680Z,99.52
2023-12-23T04:57:22.061Z,99.71
2023-12-23T04:58:24.208Z,99.73
2023-12-23T04:59:28.654Z,100.00
2023-12-23T05:00:30.927Z,99.71
2023-12-23T05:01:33.108Z,99.23
2023-12-23T05:02:35.334Z,99.52
2023-12-23T05:03:37.468Z,99.71
2023-12-23T05:04:39.615Z,100.00
2023-12-23T05:05:43.092Z,99.93
2023-12-23T05:06:45.496Z,100.00
2023-12-23T05:07:48.414Z,100.00
2023-12-23T05:08:50.938Z,100.00
2023-12-23T05:09:53.064Z,100.00
2023-12-23T05:10:55.826Z,100.00
2023-12-23T05:11:57.994Z,100.00
2023-12-23T05:13:00.127Z,100.00
2023-12-23T05:14:02.247Z,100.00
2023-12-23T05:15:06.313Z,100.00
2023-12-23T05:16:08.460Z,99.78
2023-12-23T05:17:10.792Z,99.84
2023-12-23T05:18:13.032Z,99.99
2023-12-23T05:19:15.223Z,100.00
2023-12-23T05:20:17.666Z,100.00
2023-12-23T05:21:19.938Z,100.00
2023-12-23T05:22:22.081Z,99.84
2023-12-23T05:23:24.321Z,99.88
2023-12-23T05:24:26.564Z,100.00
2023-12-23T05:25:28.816Z,100.00
2023-12-23T05:26:30.981Z,100.00
2023-12-23T05:27:33.102Z,99.23
2023-12-23T05:28:35.232Z,99.83
2023-12-23T05:29:37.476Z,100.00
2023-12-23T05:30:39.633Z,99.78
2023-12-23T05:31:43.171Z,99.45
2023-12-23T05:32:45.364Z,99.53
2023-12-23T05:33:48.421Z,98.99
2023-12-23T05:34:50.688Z,99.16
2023-12-23T05:35:52.880Z,98.69
2023-12-23T05:36:55.022Z,98.21
2023-12-23T05:37:57.792Z,97.62
2023-12-23T05:39:00.828Z,97.66
2023-12-23T05:40:02.979Z,97.68
2023-12-23T05:41:05.167Z,96.36
2023-12-23T05:42:07.507Z,96.54
2023-12-23T05:43:09.723Z,97.15
2023-12-23T05:44:11.972Z,96.86
2023-12-23T05:45:15.701Z,96.66
2023-12-23T05:46:17.892Z,97.55
2023-12-23T05:47:20.253Z,97.04
2023-12-23T05:48:22.651Z,97.79
2023-12-23T05:49:25.136Z,98.41
2023-12-23T05:50:27.452Z,97.58
2023-12-23T05:51:29.587Z,98.02
2023-12-23T05:52:31.721Z,94.77
2023-12-23T05:53:33.920Z,93.68
2023-12-23T05:54:36.055Z,95.03
2023-12-23T05:55:38.216Z,95.60
2023-12-23T05:56:40.368Z,94.06
2023-12-23T05:57:42.488Z,95.10
2023-12-23T05:58:44.684Z,95.36
2023-12-23T05:59:46.890Z,95.86
2023-12-23T06:00:50.524Z,95.93
2023-12-23T06:01:53.590Z,95.91
2023-12-23T06:02:56.154Z,96.53
2023-12-23T06:03:58.349Z,96.23
2023-12-23T06:05:00.698Z,95.48
2023-12-23T06:06:05.426Z,95.04
2023-12-23T06:07:07.716Z,95.75
2023-12-23T06:08:09.892Z,94.05
2023-12-23T06:09:12.076Z,93.01
2023-12-23T06:10:14.231Z,92.80
2023-12-23T06:11:16.494Z,93.42
2023-12-23T06:12:18.729Z,93.34
2023-12-23T06:13:20.863Z,94.01
2023-12-23T06:14:23.053Z,94.02
2023-12-23T06:15:25.299Z,93.41
2023-12-23T06:16:27.463Z,91.40
2023-12-23T06:17:29.832Z,92.23
2023-12-23T06:18:33.127Z,90.52
2023-12-23T06:19:35.394Z,90.25
2023-12-23T06:20:37.555Z,90.60
2023-12-23T06:21:46.652Z,91.50
2023-12-23T06:22:49.622Z,92.63
2023-12-23T06:23:51.998Z,92.87
2023-12-23T06:24:54.180Z,93.83
2023-12-23T06:25:56.291Z,93.86
2023-12-23T06:26:59.575Z,94.04
2023-12-23T06:28:01.693Z,94.12
2023-12-23T06:29:04.161Z,94.46
2023-12-23T06:30:06.969Z,93.73
2023-12-23T06:31:09.105Z,94.65
2023-12-23T06:32:11.251Z,94.72
2023-12-23T06:33:13.480Z,94.38
2023-12-23T06:34:16.066Z,95.08
2023-12-23T06:35:19.900Z,95.19
2023-12-23T06:36:22.147Z,94.71
2023-12-23T06:37:24.284Z,95.25
2023-12-23T06:38:26.453Z,94.13
2023-12-23T06:39:28.622Z,93.46
2023-12-23T06:40:30.835Z,94.49
2023-12-23T06:41:33.049Z,94.25
2023-12-23T06:42:35.242Z,93.24
2023-12-23T06:43:46.078Z,93.03
2023-12-23T06:44:54.300Z,92.29
2023-12-23T06:45:57.096Z,93.12
2023-12-23T06:46:59.287Z,93.41
2023-12-23T06:48:01.571Z,93.05
2023-12-23T06:49:04.060Z,93.83
2023-12-23T06:50:06.670Z,93.13
2023-12-23T06:51:08.890Z,93.17
2023-12-23T06:52:11.023Z,93.27
2023-12-23T06:53:13.630Z,93.15
2023-12-23T06:54:15.770Z,93.22
2023-12-23T06:55:17.908Z,93.25
2023-12-23T06:56:20.312Z,94.15
2023-12-23T06:57:22.540Z,94.33
2023-12-23T06:58:28.992Z,94.18
2023-12-23T06:59:31.084Z,94.39
2023-12-23T07:00:33.262Z,94.51
2023-12-23T07:01:39.146Z,94.80
2023-12-23T07:02:41.385Z,95.33
2023-12-23T07:03:43.792Z,95.02
2023-12-23T07:04:47.433Z,95.28
2023-12-23T07:05:49.776Z,94.82
2023-12-23T07:06:51.982Z,94.67
2023-12-23T07:07:54.167Z,94.73
2023-12-23T07:08:56.277Z,93.72
2023-12-23T07:10:04.963Z,92.56
2023-12-23T07:11:10.309Z,93.08
2023-12-23T07:12:12.461Z,92.99
2023-12-23T07:13:15.123Z,93.13
2023-12-23T07:14:17.229Z,91.93
2023-12-23T07:15:19.474Z,91.19
2023-12-23T07:16:21.718Z,91.12
2023-12-23T07:17:35.345Z,90.49
2023-12-23T07:18:43.451Z,90.44
2023-12-23T07:19:45.775Z,90.03
2023-12-23T07:20:48.989Z,89.45
2023-12-23T07:21:54.420Z,89.28
2023-12-23T07:22:56.757Z,87.78
2023-12-23T07:23:58.958Z,87.27
2023-12-23T07:25:01.096Z,85.57
2023-12-23T07:26:04.197Z,85.86
2023-12-23T07:27:06.395Z,86.16
2023-12-23T07:28:08.559Z,85.43
2023-12-23T07:29:10.719Z,84.29
2023-12-23T07:30:15.565Z,84.40
2023-12-23T07:31:19.156Z,84.39
2023-12-23T07:32:21.436Z,84.86
2023-12-23T07:33:23.781Z,84.45
2023-12-23T07:34:25.976Z,83.98
2023-12-23T07:35:28.792Z,84.00
2023-12-23T07:36:31.109Z,84.34
2023-12-23T07:37:33.253Z,84.40
2023-12-23T07:38:35.415Z,83.92
2023-12-23T07:39:37.562Z,83.27
2023-12-23T07:40:40.686Z,82.50
2023-12-23T07:41:42.981Z,81.18
2023-12-23T07:42:45.143Z,82.60
2023-12-23T07:43:47.474Z,82.83
2023-12-23T07:44:49.777Z,82.01
2023-12-23T07:45:51.940Z,81.31
2023-12-23T07:46:54.195Z,81.20
2023-12-23T07:47:56.423Z,80.25
2023-12-23T07:48:58.684Z,80.47
2023-12-23T07:50:01.092Z,79.85
2023-12-23T07:51:10.222Z,79.68
2023-12-23T07:52:12.423Z,80.33
2023-12-23T07:53:14.671Z,81.15
2023-12-23T07:54:16.847Z,80.31
2023-12-23T07:55:19.020Z,79.41
2023-12-23T07:56:21.235Z,79.44
2023-12-23T07:57:23.473Z,79.25
2023-12-23T07:58:25.724Z,78.31
2023-12-23T07:59:27.858Z,79.25
2023-12-23T08:00:30.064Z,78.85
2023-12-23T08:01:33.281Z,79.09
2023-12-23T08:02:35.402Z,79.36
2023-12-23T08:03:37.678Z,78.94
2023-12-23T08:04:39.968Z,79.49
2023-12-23T08:05:42.394Z,78.68
2023-12-23T08:06:44.587Z,78.33
2023-12-23T08:07:46.724Z,78.51
2023-12-23T08:08:48.919Z,77.91
2023-12-23T08:09:51.043Z,77.93
2023-12-23T08:10:55.418Z,77.53
2023-12-23T08:11:57.635Z,77.46
2023-12-23T08:13:00.091Z,77.74
2023-12-23T08:14:03.926Z,78.04
2023-12-23T08:15:06.604Z,77.34
2023-12-23T08:16:08.986Z,76.59
2023-12-23T08:17:12.680Z,75.69
2023-12-23T08:18:15.037Z,76.25
2023-12-23T08:19:19.969Z,76.14
2023-12-23T08:20:23.786Z,76.44
2023-12-23T08:21:26.002Z,76.64
2023-12-23T08:22:28.104Z,75.92
2023-12-23T08:23:30.334Z,76.17
2023-12-23T08:24:32.479Z,75.95
2023-12-23T08:25:34.595Z,77.07
2023-12-23T08:26:36.727Z,77.42
2023-12-23T08:27:39.894Z,76.02
2023-12-23T08:28:45.203Z,76.40
2023-12-23T08:29:48.694Z,76.90
2023-12-23T08:30:50.877Z,77.09
2023-12-23T08:31:53.123Z,77.13
2023-12-23T08:32:55.574Z,77.09
2023-12-23T08:33:57.923Z,76.65
2023-12-23T08:35:00.553Z,77.69
2023-12-23T08:36:03.076Z,77.67
2023-12-23T08:37:05.248Z,76.67
2023-12-23T08:38:07.470Z,76.80
2023-12-23T08:39:09.968Z,77.09
2023-12-23T08:40:12.335Z,77.09
2023-12-23T08:41:14.516Z,76.63
2023-12-23T08:42:17.039Z,76.90
2023-12-23T08:43:19.183Z,77.52
2023-12-23T08:44:22.633Z,77.78
2023-12-23T08:45:24.859Z,77.92
2023-12-23T08:46:26.991Z,77.53
2023-12-23T08:47:29.179Z,77.84
2023-12-23T08:48:31.410Z,78.07
2023-12-23T08:49:33.577Z,78.23
2023-12-23T08:50:35.858Z,78.52
2023-12-23T08:51:39.462Z,78.33
2023-12-23T08:52:41.665Z,77.78
2023-12-23T08:53:43.840Z,77.73
2023-12-23T08:54:45.983Z,77.90
2023-12-23T08:55:48.253Z,78.05
2023-12-23T08:56:50.427Z,78.65
2023-12-23T08:57:52.968Z,78.83
2023-12-23T08:58:55.649Z,78.32
2023-12-23T08:59:58.266Z,78.65
2023-12-23T09:01:00.486Z,79.16
2023-12-23T09:02:05.208Z,79.05
2023-12-23T09:03:07.425Z,79.38
2023-12-23T09:04:09.595Z,79.42
2023-12-23T09:05:11.914Z,79.15
2023-12-23T09:06:14.218Z,77.37
2023-12-23T09:07:16.424Z,77.80
2023-12-23T09:08:18.908Z,76.70
2023-12-23T09:09:21.095Z,76.84
2023-12-23T09:10:23.900Z,77.30
2023-12-23T09:11:26.125Z,77.05
2023-12-23T09:12:28.301Z,76.48
2023-12-23T09:13:30.467Z,75.59
2023-12-23T09:14:32.646Z,75.70
2023-12-23T09:15:34.889Z,75.95
2023-12-23T09:16:37.103Z,75.41
2023-12-23T09:17:39.422Z,74.64
2023-12-23T09:18:41.634Z,74.93
2023-12-23T09:19:43.848Z,75.29
2023-12-23T09:20:45.977Z,73.95
2023-12-23T09:21:48.114Z,74.68
2023-12-23T09:22:50.302Z,74.57
2023-12-23T09:23:52.450Z,73.60
2023-12-23T09:24:54.628Z,72.96
2023-12-23T09:25:56.805Z,72.56
2023-12-23T09:26:58.993Z,72.71
2023-12-23T09:28:01.118Z,72.17
2023-12-23T09:29:03.300Z,72.64
2023-12-23T09:30:06.488Z,72.20
2023-12-23T09:31:08.657Z,71.83
2023-12-23T09:32:10.824Z,72.42
2023-12-23T09:33:13.186Z,71.94
2023-12-23T09:34:15.417Z,72.41
2023-12-23T09:35:17.965Z,72.09
2023-12-23T09:36:20.120Z,72.40
2023-12-23T09:37:22.322Z,71.59
2023-12-23T09:38:24.511Z,72.38
2023-12-23T09:39:26.789Z,72.31
2023-12-23T09:40:28.929Z,72.87
2023-12-23T09:41:31.436Z,72.81
2023-12-23T09:42:33.619Z,73.51
2023-12-23T09:43:35.763Z,73.36
2023-12-23T09:44:38.421Z,72.12
2023-12-23T09:45:41.393Z,72.25
2023-12-23T09:46:43.542Z,72.52
2023-12-23T09:47:46.158Z,71.92
2023-12-23T09:48:49.644Z,72.23
2023-12-23T09:49:51.944Z,71.65
2023-12-23T09:50:54.085Z,72.16
2023-12-23T09:51:56.529Z,72.16
2023-12-23T09:53:01.590Z,71.36
2023-12-23T09:54:07.062Z,72.28
2023-12-23T09:55:11.045Z,71.79
2023-12-23T09:56:13.626Z,72.74
2023-12-23T09:57:16.117Z,72.39
2023-12-23T09:58:18.417Z,72.44
2023-12-23T09:59:20.872Z,72.83
2023-12-23T10:00:23.214Z,72.62
2023-12-23T10:01:25.520Z,73.29
2023-12-23T10:02:27.873Z,72.65
2023-12-23T10:03:30.167Z,72.25
2023-12-23T10:04:32.392Z,71.88
2023-12-23T10:05:42.271Z,72.36
2023-12-23T10:06:44.484Z,72.56
2023-12-23T10:07:46.649Z,73.03
2023-12-23T10:08:50.040Z,72.68
2023-12-23T10:09:52.208Z,71.92
2023-12-23T10:10:54.372Z,72.15
2023-12-23T10:11:56.585Z,72.47
2023-12-23T10:12:58.695Z,72.48
2023-12-23T10:14:00.840Z,71.85
2023-12-23T10:15:03.288Z,72.50
2023-12-23T10:16:05.949Z,72.55
2023-12-23T10:17:08.839Z,72.22
2023-12-23T10:18:12.712Z,72.01
2023-12-23T10:19:15.039Z,70.81
2023-12-23T10:20:17.347Z,71.69
2023-12-23T10:21:20.765Z,71.33
2023-12-23T10:22:24.321Z,72.11
2023-12-23T10:23:26.555Z,71.62
2023-12-23T10:24:28.673Z,72.10
2023-12-23T10:25:31.896Z,72.26
2023-12-23T10:26:35.290Z,71.89
2023-12-23T10:27:41.439Z,71.71
2023-12-23T10:28:48.706Z,71.86
2023-12-23T10:29:53.053Z,71.86
2023-12-23T10:30:59.100Z,71.47
2023-12-23T10:32:08.202Z,72.09
2023-12-23T10:33:12.987Z,72.13
2023-12-23T10:34:15.141Z,72.33
2023-12-23T10:35:19.671Z,72.07
2023-12-23T10:36:21.909Z,71.94
2023-12-23T10:37:25.618Z,71.88
2023-12-23T10:38:28.946Z,71.95
2023-12-23T10:39:32.913Z,72.35
2023-12-23T10:40:35.055Z,71.53
2023-12-23T10:41:49.500Z,71.74
2023-12-23T10:42:52.679Z,71.90
2023-12-23T10:43:55.427Z,71.64
2023-12-23T10:44:59.181Z,71.28
2023-12-23T10:46:01.582Z,71.73
2023-12-23T10:47:05.749Z,71.38
2023-12-23T10:48:09.153Z,71.92
2023-12-23T10:49:11.876Z,71.58
2023-12-23T10:50:15.562Z,71.91
2023-12-23T10:51:19.675Z,71.84
2023-12-23T10:52:22.099Z,71.26
2023-12-23T10:53:24.571Z,71.58
2023-12-23T10:54:28.895Z,71.55
2023-12-23T10:55:32.111Z,72.11
2023-12-23T10:56:35.114Z,72.34
2023-12-23T10:57:37.935Z,72.00
2023-12-23T10:58:40.805Z,71.77
2023-12-23T10:59:43.035Z,72.06
2023-12-23T11:00:45.328Z,72.18
2023-12-23T11:01:48.047Z,72.29
2023-12-23T11:02:51.008Z,72.80
2023-12-23T11:03:55.772Z,72.91
2023-12-23T11:04:59.590Z,72.68
2023-12-23T11:06:02.675Z,72.33
2023-12-23T11:07:05.340Z,72.98
2023-12-23T11:08:16.632Z,72.60
2023-12-23T11:09:20.860Z,72.99
2023-12-23T11:10:23.995Z,72.36
2023-12-23T11:11:27.380Z,72.67
2023-12-23T11:12:30.910Z,72.34
2023-12-23T11:13:33.400Z,71.90
2023-12-23T11:14:37.266Z,72.68
2023-12-23T11:15:40.742Z,72.48
2023-12-23T11:16:46.001Z,72.08
2023-12-23T11:17:48.489Z,70.90
2023-12-23T11:18:54.042Z,69.95
2023-12-23T11:19:57.429Z,70.26
2023-12-23T11:20:59.997Z,70.59
2023-12-23T11:22:22.457Z,71.11
2023-12-23T11:23:27.659Z,71.52
2023-12-23T11:24:37.275Z,71.37
2023-12-23T11:25:40.733Z,71.28
2023-12-23T11:26:43.631Z,71.74
2023-12-23T11:27:45.867Z,71.10
2023-12-23T11:28:50.229Z,71.45
2023-12-23T11:29:52.605Z,70.85
2023-12-23T11:30:56.897Z,71.90
2023-12-23T11:32:14.967Z,73.31
2023-12-23T11:33:24.658Z,74.02
2023-12-23T11:34:26.843Z,73.73
2023-12-23T11:35:30.634Z,74.81
2023-12-23T11:36:32.855Z,74.86
2023-12-23T11:37:55.417Z,75.20
2023-12-23T11:38:57.663Z,76.20
2023-12-23T11:40:00.936Z,76.64
2023-12-23T11:41:03.703Z,77.08
2023-12-23T11:42:06.509Z,78.20
2023-12-23T11:43:08.856Z,79.14
2023-12-23T11:44:14.822Z,80.50
2023-12-23T11:45:17.553Z,80.57
2023-12-23T11:46:24.490Z,81.30
2023-12-23T11:47:27.158Z,81.40
2023-12-23T11:48:29.411Z,81.98
2023-12-23T11:49:31.612Z,81.89
2023-12-23T11:50:33.846Z,83.06
2023-12-23T11:51:36.715Z,82.58
2023-12-23T11:52:38.997Z,83.23
2023-12-23T11:53:41.643Z,83.62
2023-12-23T11:54:45.768Z,84.40
2023-12-23T11:55:48.280Z,85.64
2023-12-23T11:56:50.484Z,86.92
2023-12-23T11:57:52.689Z,87.46
2023-12-23T11:58:54.949Z,87.11
2023-12-23T11:59:57.303Z,88.21
2023-12-23T12:00:59.897Z,89.03
2023-12-23T12:02:02.831Z,88.59
2023-12-23T12:03:06.349Z,89.22
2023-12-23T12:04:09.642Z,90.19
2023-12-23T12:05:12.468Z,90.74
2023-12-23T12:06:15.077Z,91.35
2023-12-23T12:07:19.113Z,91.82
2023-12-23T12:08:21.985Z,92.29
2023-12-23T12:09:24.205Z,92.70
2023-12-23T12:10:26.476Z,93.01
2023-12-23T12:11:29.917Z,93.25
2023-12-23T12:12:32.217Z,93.25
2023-12-23T12:13:37.898Z,93.24
2023-12-23T12:14:40.698Z,92.92
2023-12-23T12:15:43.132Z,93.44
2023-12-23T12:16:45.448Z,93.81
2023-12-23T12:17:47.916Z,93.66
2023-12-23T12:18:50.311Z,93.74
2023-12-23T12:19:52.565Z,93.78
2023-12-23T12:20:54.792Z,93.69
2023-12-23T12:21:56.915Z,94.02
2023-12-23T12:22:59.152Z,94.67
2023-12-23T12:24:01.712Z,93.78
2023-12-23T12:25:03.930Z,93.40
2023-12-23T12:26:06.104Z,93.22
2023-12-23T12:27:08.270Z,93.61
2023-12-23T12:28:10.409Z,94.70
2023-12-23T12:29:12.627Z,95.29
2023-12-23T12:30:14.901Z,95.92
2023-12-23T12:31:18.533Z,96.13
2023-12-23T12:32:23.451Z,96.44
2023-12-23T12:33:25.836Z,96.62
2023-12-23T12:34:29.750Z,96.36
2023-12-23T12:35:31.988Z,97.40
2023-12-23T12:36:34.212Z,97.32
2023-12-23T12:37:36.338Z,97.30
2023-12-23T12:38:38.945Z,97.72
2023-12-23T12:39:41.281Z,96.39
2023-12-23T12:40:43.448Z,96.51
2023-12-23T12:41:45.841Z,96.99
2023-12-23T12:42:52.171Z,96.64
2023-12-23T12:43:55.808Z,96.80
2023-12-23T12:45:03.550Z,97.25
2023-12-23T12:46:06.802Z,97.69
2023-12-23T12:47:09.074Z,98.15
2023-12-23T12:48:12.230Z,97.67
2023-12-23T12:49:16.470Z,96.77
2023-12-23T12:50:19.907Z,96.78
2023-12-23T12:51:22.107Z,96.73
2023-12-23T12:52:24.236Z,97.22
2023-12-23T12:53:26.416Z,97.48
2023-12-23T12:54:30.312Z,97.36
2023-12-23T12:55:32.422Z,97.16
2023-12-23T12:56:35.266Z,97.09
2023-12-23T12:57:37.417Z,97.13
2023-12-23T12:58:40.448Z,97.67
2023-12-23T12:59:42.685Z,97.46
2023-12-23T13:00:44.951Z,97.90
2023-12-23T13:01:47.306Z,98.13
2023-12-23T13:02:49.725Z,98.84
2023-12-23T13:03:52.625Z,99.42
2023-12-23T13:04:55.056Z,99.40
2023-12-23T13:05:58.014Z,98.14
2023-12-23T13:07:00.169Z,98.73
2023-12-23T13:08:02.730Z,99.26
2023-12-23T13:09:05.747Z,100.00
2023-12-23T13:10:08.196Z,100.00
2023-12-23T13:11:10.448Z,100.00
2023-12-23T13:12:12.971Z,100.00
2023-12-23T13:13:15.930Z,100.00
2023-12-23T13:14:18.109Z,100.00
2023-12-23T13:15:20.366Z,100.00
2023-12-23T13:16:22.473Z,100.00
2023-12-23T13:17:24.760Z,100.00
2023-12-23T13:18:27.462Z,100.00
2023-12-23T13:19:29.701Z,100.00